Latest Weather Observations for Gudai-Darri Mine

IDW60801

Issued at 2:33 pm WST Saturday 10 December 2022 (issued every 10 minutes, with the page automatically refreshed every 10 minutes)

About weather observations | Map of weather stations | Latest weather observations for WA | Other Formats
Station Details ID: 505064 Name: GUDAI-DARRI MINE Lat: -22.51 Lon: 119.07 Height: 450.38 m
Data from the previous 72 hours. | See also: Recent months for locations in Western Australia
Date/Time
WST
Temp
°C
App
Temp
°C
Dew
Point
°C
Rel
Hum
%
Delta-T
°C
Wind Press
QNH
hPa
Press
MSL
hPa
Rain since
9am
mm
Dir  Spd
km/h
Gust
km/h
Spd
kts
Gust
kts
10/02:30pm 40.3 35.8 4.2 11 20.0 WSW 17 35 9 19 1009.6 - 0.0
10/02:00pm 40.3 34.8 4.2 11 20.0 WNW 22 35 12 19 1010.1 - 0.0
10/01:30pm 40.3 35.2 4.2 11 20.0 WNW 20 33 11 18 1010.6 - 0.0
10/01:00pm 39.7 36.6 3.7 11 19.7 NW 9 22 5 12 1010.9 - 0.0
10/12:30pm 39.8 35.8 5.1 12 19.4 WNW 15 41 8 22 1011.1 - 0.0
10/12:00pm 38.4 33.7 5.1 13 18.5 WNW 19 28 10 15 1011.6 - 0.0
10/11:30am 37.5 33.6 5.5 14 17.8 SW 15 26 8 14 1012.3 - 0.0
10/11:00am 36.9 32.2 5.0 14 17.6 WSW 19 32 10 17 1012.5 - 0.0
10/10:30am 36.8 33.0 5.9 15 17.2 WSW 15 30 8 16 1012.7 - 0.0
10/10:00am 36.0 31.3 6.2 16 16.6 WSW 20 33 11 18 1013.0 - 0.0
10/09:30am 35.2 31.3 7.3 18 15.8 WSW 17 28 9 15 1013.1 - 0.0
10/09:00am 34.7 31.5 6.9 18 15.6 SW 13 28 7 15 1013.3 - 0.0
10/08:30am 33.9 30.9 7.8 20 14.8 SW 13 22 7 12 1013.3 - 0.0
10/08:00am 33.6 30.6 7.6 20 14.7 SSW 13 26 7 14 1013.2 - 0.0
10/07:30am 32.6 29.3 8.1 22 13.9 SSW 15 24 8 13 1012.9 - 0.0
10/07:00am 31.2 27.0 8.2 24 13.0 SSW 20 32 11 17 1012.6 - 0.0
10/06:30am 30.4 24.5 7.6 24 12.7 SSW 28 33 15 18 1012.1 - 0.0
10/06:00am 29.7 25.5 8.2 26 12.0 SSW 20 30 11 16 1011.8 - 0.0
10/05:30am 29.3 25.2 7.8 26 11.9 SW 19 24 10 13 1011.5 - 0.0
10/05:00am 29.6 23.8 8.1 26 12.0 SSW 28 33 15 18 1010.8 - 0.0
10/04:30am 30.0 24.2 7.8 25 12.3 SW 28 39 15 21 1010.7 - 0.0
10/04:00am 30.0 24.6 7.8 25 12.3 SW 26 35 14 19 1010.5 - 0.0
10/03:30am 30.5 23.3 7.7 24 12.7 SW 35 46 19 25 1010.1 - 0.0
10/03:00am 30.6 24.1 8.3 25 12.5 SW 32 43 17 23 1010.0 - 0.0
10/02:30am 30.8 24.8 8.5 25 12.6 SW 30 41 16 22 1010.0 - 0.0
10/02:00am 31.1 25.5 8.8 25 12.7 SW 28 37 15 20 1009.9 - 0.0
10/01:30am 31.6 24.6 8.6 24 13.1 SW 35 44 19 24 1009.9 - 0.0
10/01:00am 31.8 26.0 8.1 23 13.4 SW 28 41 15 22 1010.1 - 0.0
10/12:30am 32.0 26.3 8.3 23 13.4 SW 28 37 15 20 1010.1 - 0.0
10/12:00am 32.4 27.0 8.0 22 13.8 SW 26 33 14 18 1010.4 - 0.0
 
Date/Time
WST
Temp
°C
App
Temp
°C
Dew
Point
°C
Rel
Hum
%
Delta-T
°C
Wind Press
QNH
hPa
Press
MSL
hPa
Rain since
9am
mm
Dir  Spd
km/h
Gust
km/h
Spd
kts
Gust
kts
09/11:30pm 32.7 28.9 7.5 21 14.1 WSW 17 30 9 16 1010.6 - 0.0
09/11:00pm 30.2 26.9 4.8 20 13.5 WNW 11 13 6 7 1010.8 - 0.0
09/10:30pm 32.0 28.9 5.5 19 14.3 W 11 13 6 7 1010.8 - 0.0
09/10:00pm 32.8 29.3 5.4 18 14.9 W 13 13 7 7 1010.7 - 0.0
09/09:30pm 33.8 30.1 4.5 16 15.8 WNW 13 17 7 9 1010.6 - 0.0
09/09:00pm 34.0 30.3 4.6 16 15.9 WNW 13 15 7 8 1010.4 - 0.0
09/08:30pm 35.1 31.4 4.6 15 16.5 WNW 13 19 7 10 1010.1 - 0.0
09/08:00pm 36.0 31.9 4.3 14 17.2 W 15 20 8 11 1009.8 - 0.0
09/07:30pm 36.6 31.6 4.8 14 17.4 W 20 30 11 16 1009.4 - 0.0
09/07:00pm 37.0 31.9 4.0 13 17.9 WNW 20 30 11 16 1008.8 - 0.0
09/06:30pm 37.8 32.6 3.5 12 18.5 WNW 20 32 11 17 1008.5 - 0.0
09/06:00pm 38.6 32.0 4.1 12 18.9 NW 28 39 15 21 1008.1 - 0.0
09/05:30pm 39.4 32.7 3.5 11 19.6 WNW 28 39 15 21 1007.7 - 0.0
09/05:00pm 40.2 33.6 4.1 11 19.9 WNW 28 46 15 25 1007.5 - 0.0
09/04:55pm 40.3 33.4 2.8 10 20.3 NW 28 46 15 25 1007.3 - 0.0
09/04:30pm 40.2 33.7 2.8 10 20.3 WNW 26 33 14 18 1007.3 - 0.0
09/04:00pm 40.4 34.6 4.3 11 20.0 NW 24 41 13 22 1007.3 - 0.0
09/03:30pm 40.5 33.5 4.3 11 20.1 NW 30 48 16 26 1007.5 - 0.0
09/03:26pm 40.7 33.8 4.5 11 20.2 NW 30 48 16 26 1007.6 - 0.0
09/03:24pm 40.4 33.2 2.9 10 20.4 NNW 30 44 16 24 1007.7 - 0.0
09/03:17pm 40.7 32.9 3.1 10 20.5 NNW 33 48 18 26 1007.7 - 0.0
09/03:01pm 40.1 32.8 2.7 10 20.2 NW 30 48 16 26 1007.8 - 0.0
09/03:00pm 40.0 32.4 2.6 10 20.2 NW 32 48 17 26 1007.8 - 0.0
09/02:30pm 41.2 33.7 3.5 10 20.7 NNW 32 56 17 30 1007.9 - 0.0
09/02:26pm 40.6 33.5 5.7 12 19.8 NNW 32 50 17 27 1007.9 - 0.0
09/02:00pm 40.0 33.4 4.0 11 19.8 NW 28 50 15 27 1008.0 - 0.0
09/01:30pm 41.6 35.2 5.2 11 20.6 NNW 28 52 15 28 1008.3 - 0.0
09/01:06pm 39.9 32.7 5.1 12 19.5 NNW 32 48 17 26 1008.6 - 0.0
09/01:00pm 40.8 33.3 4.6 11 20.2 NNW 33 48 18 26 1008.7 - 0.0
09/12:59pm 40.8 33.5 4.6 11 20.2 NNW 32 48 17 26 1008.7 - 0.0
09/12:33pm 39.9 33.5 5.1 12 19.5 NW 28 46 15 25 1009.0 - 0.0
09/12:30pm 39.9 34.2 5.1 12 19.5 NW 24 46 13 25 1009.2 - 0.0
09/12:10pm 39.5 33.6 6.0 13 19.0 NW 26 52 14 28 1009.4 - 0.0
09/12:00pm 38.2 32.7 6.0 14 18.1 NNW 24 44 13 24 1009.7 - 0.0
09/11:30am 38.6 32.1 6.3 14 18.3 NW 30 50 16 27 1010.1 - 0.0
09/11:05am 38.6 32.4 6.3 14 18.3 WNW 28 46 15 25 1010.4 - 0.0
09/11:00am 37.8 32.9 6.7 15 17.6 NW 22 46 12 25 1010.4 - 0.0
09/10:47am 37.6 31.5 6.6 15 17.6 WNW 28 46 15 25 1010.7 - 0.0
09/10:30am 37.7 33.7 6.6 15 17.6 WNW 17 32 9 17 1010.7 - 0.0
09/10:00am 36.4 32.0 6.6 16 16.8 WNW 19 30 10 16 1010.8 - 0.0
09/09:30am 35.9 33.1 7.0 17 16.3 WNW 11 28 6 15 1011.0 - 0.0
09/09:00am 34.7 32.8 6.9 18 15.6 NW 6 13 3 7 1011.2 - 0.0
09/08:30am 33.8 31.8 7.0 19 15.0 WSW 7 15 4 8 1011.2 - 0.0
09/08:00am 33.3 31.5 7.3 20 14.6 S 6 11 3 6 1011.1 - 0.0
09/07:30am 32.2 30.6 7.8 22 13.7 ESE 6 9 3 5 1010.8 - 0.0
09/07:00am 31.4 30.1 7.8 23 13.2 NE 4 6 2 3 1010.8 - 0.0
09/06:30am 29.8 28.4 7.1 24 12.5 N 4 6 2 3 1010.6 - 0.0
09/06:00am 26.9 24.9 6.3 27 11.0 NNE 6 7 3 4 1010.3 - 0.0
09/05:30am 27.8 25.9 6.6 26 11.4 NE 6 7 3 4 1009.9 - 0.0
09/05:00am 29.2 27.3 6.6 24 12.3 W 6 9 3 5 1009.6 - 0.0
09/04:30am 29.1 27.5 6.5 24 12.2 E 4 9 2 5 1009.3 - 0.0
09/04:00am 30.2 24.9 6.8 23 12.8 SSW 24 32 13 17 1008.8 - 0.0
09/03:30am 30.7 24.6 6.6 22 13.2 SW 28 35 15 19 1008.5 - 0.0
09/03:00am 30.9 24.1 6.7 22 13.3 SW 32 43 17 23 1008.3 - 0.0
09/02:30am 31.1 24.1 6.9 22 13.3 SW 33 48 18 26 1008.1 - 0.0
09/02:00am 31.3 24.2 6.4 21 13.6 SW 33 43 18 23 1008.0 - 0.0
09/01:30am 31.5 24.3 5.8 20 13.9 SW 33 43 18 23 1008.0 - 0.0
09/01:00am 31.7 24.7 6.0 20 14.0 SW 32 43 17 23 1008.3 - 0.0
09/12:30am 32.0 25.8 6.2 20 14.1 SW 28 39 15 21 1008.4 - 0.0
09/12:00am 32.5 26.8 6.7 20 14.3 SW 26 33 14 18 1008.6 - 0.0
 
Date/Time
WST
Temp
°C
App
Temp
°C
Dew
Point
°C
Rel
Hum
%
Delta-T
°C
Wind Press
QNH
hPa
Press
MSL
hPa
Rain since
9am
mm
Dir  Spd
km/h
Gust
km/h
Spd
kts
Gust
kts
08/11:30pm 32.6 27.1 6.0 19 14.6 SW 24 35 13 19 1008.9 - 0.0
08/11:00pm 33.4 28.9 5.9 18 15.1 SW 19 28 10 15 1009.3 - 0.0
08/10:30pm 34.1 29.9 5.6 17 15.6 WSW 17 26 9 14 1009.4 - 0.0
08/10:00pm 32.7 29.2 5.3 18 14.8 W 13 15 7 8 1009.3 - 0.0
08/09:30pm 33.1 29.6 5.6 18 15.0 WNW 13 15 7 8 1009.2 - 0.0
08/09:00pm 34.1 30.3 5.6 17 15.6 WNW 15 20 8 11 1008.8 - 0.0
08/08:30pm 34.5 30.5 5.0 16 16.1 WNW 15 20 8 11 1008.7 - 0.0
08/08:00pm 35.6 31.2 5.0 15 16.7 WNW 17 22 9 12 1008.3 - 0.0
08/07:30pm 36.4 32.0 4.6 14 17.4 WNW 17 30 9 16 1008.0 - 0.0
08/07:00pm 37.2 31.6 5.3 14 17.7 WNW 24 32 13 17 1007.8 - 0.0
08/06:30pm 37.9 32.2 4.7 13 18.3 NW 24 32 13 17 1007.4 - 0.0
08/06:00pm 38.5 32.1 5.2 13 18.5 NW 28 39 15 21 1007.0 - 0.0
08/05:30pm 39.4 34.0 4.7 12 19.3 WNW 22 35 12 19 1006.5 - 0.0
08/05:00pm 39.7 33.3 5.0 12 19.4 NW 28 46 15 25 1006.3 - 0.0
08/04:59pm 39.7 33.3 5.0 12 19.4 WNW 28 46 15 25 1006.2 - 0.0
08/04:30pm 40.4 33.4 4.3 11 20.0 NW 30 50 16 27 1006.1 - 0.0
08/04:13pm 40.7 34.4 5.7 12 19.8 WNW 28 46 15 25 1006.1 - 0.0
08/04:00pm 40.1 33.0 5.3 12 19.6 NW 32 50 17 27 1006.2 - 0.0
08/03:54pm 40.3 33.9 5.4 12 19.7 WNW 28 50 15 27 1006.0 - 0.0
08/03:30pm 41.1 34.9 6.0 12 20.0 NW 28 41 15 22 1006.2 - 0.0
08/03:04pm 40.3 32.4 4.2 11 20.0 NNW 35 56 19 30 1006.5 - 0.0
08/03:00pm 41.3 34.1 4.9 11 20.4 NW 32 54 17 29 1006.4 - 0.0
08/02:40pm 40.0 32.8 5.2 12 19.5 WNW 32 52 17 28 1006.8 - 0.0
08/02:33pm 40.6 34.4 4.4 11 20.1 WNW 26 52 14 28 1006.8 - 0.0
08/02:30pm 40.3 34.7 5.4 12 19.7 NW 24 44 13 24 1006.6 - 0.0
08/02:00pm 40.0 34.0 5.2 12 19.5 WNW 26 44 14 24 1007.2 - 0.0
08/01:30pm 39.9 33.1 5.1 12 19.5 WNW 30 52 16 28 1007.5 - 0.0
08/01:04pm 40.2 34.6 5.4 12 19.6 NW 24 46 13 25 1007.8 - 0.0
08/01:00pm 39.6 34.1 6.1 13 19.0 NW 24 44 13 24 1007.8 - 0.0
08/12:56pm 39.4 32.1 4.7 12 19.3 NNW 32 50 17 27 1007.9 - 0.0
08/12:49pm 40.4 34.1 5.5 12 19.7 NW 28 48 15 26 1008.0 - 0.0
08/12:40pm 39.3 32.1 5.8 13 18.9 WNW 33 52 18 28 1008.1 - 0.0
08/12:30pm 40.1 34.0 6.4 13 19.2 NNW 28 48 15 26 1008.2 - 0.0
08/12:07pm 39.1 33.0 6.7 14 18.5 NW 28 50 15 27 1008.6 - 0.0
08/12:00pm 38.4 33.3 6.2 14 18.2 NW 22 43 12 23 1008.8 - 0.0
08/11:30am 38.8 33.4 6.5 14 18.4 NW 24 48 13 26 1009.0 - 0.0
08/11:00am 38.4 32.2 6.2 14 18.2 WNW 28 41 15 22 1009.5 - 0.0
08/10:56am 37.6 31.5 6.6 15 17.6 NW 28 41 15 22 1009.6 - 0.0
08/10:30am 36.6 32.6 6.7 16 16.9 W 17 33 9 18 1009.9 - 0.0
08/10:00am 36.3 32.1 7.4 17 16.5 W 19 28 10 15 1010.3 - 0.0
08/09:30am 35.2 31.9 8.1 19 15.5 WSW 15 26 8 14 1010.5 - 0.0
08/09:00am 34.6 32.3 9.1 21 14.8 SW 11 20 6 11 1010.6 - 0.0
08/08:30am 33.3 31.1 9.4 23 13.8 SSW 11 17 6 9 1010.7 - 0.0
08/08:00am 32.4 30.3 9.9 25 13.1 SSW 11 19 6 10 1010.6 - 0.0
08/07:30am 31.3 28.4 9.5 26 12.5 SW 15 24 8 13 1010.4 - 0.0
08/07:00am 30.3 26.5 9.2 27 12.0 SSW 19 26 10 14 1010.2 - 0.0
08/06:30am 30.0 27.4 9.5 28 11.7 SW 13 19 7 10 1009.9 - 0.0
08/06:00am 29.8 26.8 9.3 28 11.7 SSW 15 22 8 12 1009.6 - 0.0
08/05:30am 29.1 27.3 9.3 29 11.2 WSW 9 15 5 8 1009.0 - 0.0
08/05:00am 29.2 27.2 8.8 28 11.5 WSW 9 19 5 10 1008.5 - 0.0
08/04:30am 29.8 26.7 8.8 27 11.9 WSW 15 26 8 14 1008.3 - 0.0
08/04:00am 29.7 27.6 8.2 26 12.0 WNW 9 15 5 8 1008.0 - 0.0
08/03:30am 30.1 27.1 7.9 25 12.4 WSW 13 20 7 11 1007.7 - 0.0
08/03:00am 30.5 25.8 7.7 24 12.7 SW 22 33 12 18 1007.5 - 0.0
08/02:30am 30.8 26.9 7.3 23 13.0 SW 17 28 9 15 1007.3 - 0.0
08/02:00am 31.2 27.7 7.0 22 13.4 WSW 15 22 8 12 1007.6 - 0.0
08/01:30am 31.8 27.8 6.8 21 13.8 WSW 17 24 9 13 1007.5 - 0.0
08/01:00am 32.0 28.7 6.2 20 14.1 WSW 13 22 7 12 1007.4 - 0.0
08/12:30am 31.9 28.9 6.2 20 14.1 WSW 11 17 6 9 1007.6 - 0.0
08/12:00am 32.9 29.9 6.2 19 14.7 WSW 11 19 6 10 1007.8 - 0.0
 
Date/Time
WST
Temp
°C
App
Temp
°C
Dew
Point
°C
Rel
Hum
%
Delta-T
°C
Wind Press
QNH
hPa
Press
MSL
hPa
Rain since
9am
mm
Dir  Spd
km/h
Gust
km/h
Spd
kts
Gust
kts
07/11:30pm 33.7 29.2 6.1 18 15.2 WSW 19 28 10 15 1007.7 - 0.0
07/11:00pm 34.3 28.8 5.8 17 15.7 WSW 24 39 13 21 1007.7 - 0.0
07/10:30pm 34.9 28.5 5.4 16 16.2 WSW 28 46 15 25 1007.3 - 0.0
07/10:29pm 35.0 28.6 5.4 16 16.2 WSW 28 46 15 25 1007.2 - 0.0
07/10:00pm 35.7 28.9 5.1 15 16.8 W 30 43 16 23 1006.8 - 0.0
07/09:30pm 36.5 31.0 5.7 15 17.1 WSW 24 35 13 19 1006.3 - 0.0
07/09:00pm 36.1 29.7 5.4 15 16.9 WNW 28 39 15 21 1005.9 - 0.0
07/08:30pm 36.9 30.1 5.0 14 17.6 WNW 30 43 16 23 1005.5 - 0.0
07/08:00pm 37.8 30.9 4.7 13 18.2 WNW 30 43 16 23 1005.1 - 0.0
07/07:30pm 38.5 32.6 4.1 12 18.8 WNW 24 33 13 18 1004.7 - 0.0
07/07:00pm 39.2 34.4 4.6 12 19.2 WNW 19 32 10 17 1004.2 - 0.0
07/06:30pm 40.3 35.5 5.4 12 19.7 WNW 20 33 11 18 1003.8 - 0.0
07/06:00pm 41.1 37.0 6.0 12 20.0 WNW 17 22 9 12 1003.6 - 0.0
07/05:30pm 41.9 37.3 5.4 11 20.7 NW 19 32 10 17 1003.4 - 0.0
07/05:00pm 42.1 37.3 5.6 11 20.8 WNW 20 30 11 16 1003.3 - 0.0
07/04:30pm 43.1 40.2 6.3 11 21.3 W 11 26 6 14 1003.3 - 0.0
07/04:00pm 42.4 38.2 5.8 11 20.9 W 17 30 9 16 1003.5 - 0.0
07/03:30pm 42.3 40.5 7.0 12 20.5 E 6 11 3 6 1003.7 - 0.0
07/03:00pm 42.1 39.7 6.8 12 20.4 WNW 9 19 5 10 1004.1 - 0.0

Other formats

Comma delimited format used in spreadsheet applications
http://www.bom.gov.au/fwo/IDW60801/IDW60801.99594.axf

JavaScript Object Notation format (JSON) in row-major order
http://www.bom.gov.au/fwo/IDW60801/IDW60801.99594.json

Data quality

Most of these data are generated automatically and are frequently updated. Quality checks on data are not normally performed. It is possible for incorrect values to appear. Refer to information at About Latest Weather Observations and please check the disclaimer before using these data.